sensor_id;sensor_type;location;lat;lon;timestamp;P1;durP1;ratioP1;P2;durP2;ratioP2
52126;SDS011;38120;53.176;6.614;2024-01-10T00:01:33;30.45;;;22.95;;
52126;SDS011;38120;53.176;6.614;2024-01-10T00:03:59;28.73;;;23.00;;
52126;SDS011;38120;53.176;6.614;2024-01-10T00:06:25;30.57;;;23.20;;
52126;SDS011;38120;53.176;6.614;2024-01-10T00:08:51;28.43;;;22.10;;
52126;SDS011;38120;53.176;6.614;2024-01-10T00:11:16;26.47;;;22.73;;
52126;SDS011;38120;53.176;6.614;2024-01-10T00:13:42;32.63;;;21.43;;
52126;SDS011;38120;53.176;6.614;2024-01-10T00:16:08;29.95;;;21.38;;
52126;SDS011;38120;53.176;6.614;2024-01-10T00:18:36;34.47;;;22.95;;
52126;SDS011;38120;53.176;6.614;2024-01-10T00:21:02;26.77;;;21.43;;
52126;SDS011;38120;53.176;6.614;2024-01-10T00:23:27;32.60;;;23.10;;
52126;SDS011;38120;53.176;6.614;2024-01-10T00:25:53;31.42;;;22.63;;
52126;SDS011;38120;53.176;6.614;2024-01-10T00:28:19;30.43;;;22.90;;
52126;SDS011;38120;53.176;6.614;2024-01-10T00:30:45;29.97;;;22.80;;
52126;SDS011;38120;53.176;6.614;2024-01-10T00:33:13;30.42;;;21.33;;
52126;SDS011;38120;53.176;6.614;2024-01-10T00:35:39;30.98;;;21.27;;
52126;SDS011;38120;53.176;6.614;2024-01-10T00:38:05;28.40;;;21.03;;
52126;SDS011;38120;53.176;6.614;2024-01-10T00:40:31;30.33;;;21.98;;
52126;SDS011;38120;53.176;6.614;2024-01-10T00:42:56;27.95;;;22.88;;
52126;SDS011;38120;53.176;6.614;2024-01-10T00:45:22;30.27;;;22.70;;
52126;SDS011;38120;53.176;6.614;2024-01-10T00:47:48;29.33;;;21.70;;
52126;SDS011;38120;53.176;6.614;2024-01-10T00:50:14;27.65;;;21.77;;
52126;SDS011;38120;53.176;6.614;2024-01-10T00:52:40;32.27;;;23.30;;
52126;SDS011;38120;53.176;6.614;2024-01-10T00:55:06;28.63;;;23.27;;
52126;SDS011;38120;53.176;6.614;2024-01-10T00:57:31;28.75;;;21.50;;
52126;SDS011;38120;53.176;6.614;2024-01-10T00:59:57;29.93;;;23.07;;
52126;SDS011;38120;53.176;6.614;2024-01-10T01:02:23;31.57;;;23.37;;
52126;SDS011;38120;53.176;6.614;2024-01-10T01:04:48;31.27;;;22.63;;
52126;SDS011;38120;53.176;6.614;2024-01-10T01:07:14;26.83;;;20.63;;
52126;SDS011;38120;53.176;6.614;2024-01-10T01:09:40;30.23;;;22.93;;
52126;SDS011;38120;53.176;6.614;2024-01-10T01:12:05;32.47;;;23.27;;
52126;SDS011;38120;53.176;6.614;2024-01-10T01:14:31;30.53;;;22.77;;
52126;SDS011;38120;53.176;6.614;2024-01-10T01:16:57;30.67;;;23.33;;
52126;SDS011;38120;53.176;6.614;2024-01-10T01:19:22;30.60;;;21.90;;
52126;SDS011;38120;53.176;6.614;2024-01-10T01:21:48;28.53;;;21.57;;
52126;SDS011;38120;53.176;6.614;2024-01-10T01:24:14;29.33;;;22.07;;
52126;SDS011;38120;53.176;6.614;2024-01-10T01:26:39;31.50;;;21.10;;
52126;SDS011;38120;53.176;6.614;2024-01-10T01:29:05;28.47;;;21.40;;
52126;SDS011;38120;53.176;6.614;2024-01-10T01:31:31;31.27;;;22.60;;
52126;SDS011;38120;53.176;6.614;2024-01-10T01:33:57;34.50;;;21.55;;
52126;SDS011;38120;53.176;6.614;2024-01-10T01:36:22;28.40;;;20.13;;
52126;SDS011;38120;53.176;6.614;2024-01-10T01:38:48;27.23;;;21.27;;
52126;SDS011;38120;53.176;6.614;2024-01-10T01:41:14;29.57;;;20.77;;
52126;SDS011;38120;53.176;6.614;2024-01-10T01:43:40;25.48;;;20.10;;
52126;SDS011;38120;53.176;6.614;2024-01-10T01:46:06;27.63;;;21.83;;
52126;SDS011;38120;53.176;6.614;2024-01-10T01:48:33;28.65;;;22.20;;
52126;SDS011;38120;53.176;6.614;2024-01-10T01:51:02;27.25;;;21.58;;
52126;SDS011;38120;53.176;6.614;2024-01-10T01:53:30;28.92;;;20.40;;
52126;SDS011;38120;53.176;6.614;2024-01-10T01:55:57;30.67;;;22.63;;
52126;SDS011;38120;53.176;6.614;2024-01-10T01:58:28;30.35;;;22.60;;
52126;SDS011;38120;53.176;6.614;2024-01-10T02:00:54;35.78;;;22.92;;
52126;SDS011;38120;53.176;6.614;2024-01-10T02:03:20;26.00;;;21.60;;
52126;SDS011;38120;53.176;6.614;2024-01-10T02:05:46;30.77;;;21.83;;
52126;SDS011;38120;53.176;6.614;2024-01-10T02:08:13;29.95;;;22.02;;
52126;SDS011;38120;53.176;6.614;2024-01-10T02:10:39;27.00;;;21.10;;
52126;SDS011;38120;53.176;6.614;2024-01-10T02:13:05;26.93;;;21.17;;
52126;SDS011;38120;53.176;6.614;2024-01-10T02:15:34;26.90;;;21.02;;
52126;SDS011;38120;53.176;6.614;2024-01-10T02:18:00;27.25;;;20.30;;
52126;SDS011;38120;53.176;6.614;2024-01-10T02:20:26;25.10;;;19.33;;
52126;SDS011;38120;53.176;6.614;2024-01-10T02:22:52;26.08;;;19.60;;
52126;SDS011;38120;53.176;6.614;2024-01-10T02:25:18;27.50;;;19.87;;
52126;SDS011;38120;53.176;6.614;2024-01-10T02:27:43;26.83;;;19.48;;
52126;SDS011;38120;53.176;6.614;2024-01-10T02:30:09;25.67;;;20.67;;
52126;SDS011;38120;53.176;6.614;2024-01-10T02:35:02;25.65;;;18.15;;
52126;SDS011;38120;53.176;6.614;2024-01-10T02:37:28;24.52;;;19.35;;
52126;SDS011;38120;53.176;6.614;2024-01-10T02:39:54;28.30;;;20.27;;
52126;SDS011;38120;53.176;6.614;2024-01-10T02:42:19;28.50;;;20.30;;
52126;SDS011;38120;53.176;6.614;2024-01-10T02:44:45;26.10;;;19.93;;
52126;SDS011;38120;53.176;6.614;2024-01-10T02:47:11;30.20;;;20.77;;
52126;SDS011;38120;53.176;6.614;2024-01-10T02:49:37;31.17;;;20.75;;
52126;SDS011;38120;53.176;6.614;2024-01-10T02:52:03;27.90;;;20.50;;
52126;SDS011;38120;53.176;6.614;2024-01-10T02:54:29;27.33;;;20.40;;
52126;SDS011;38120;53.176;6.614;2024-01-10T02:56:55;30.93;;;20.77;;
52126;SDS011;38120;53.176;6.614;2024-01-10T02:59:20;30.33;;;20.43;;
52126;SDS011;38120;53.176;6.614;2024-01-10T03:01:46;25.27;;;19.13;;
52126;SDS011;38120;53.176;6.614;2024-01-10T03:04:12;27.05;;;20.23;;
52126;SDS011;38120;53.176;6.614;2024-01-10T03:06:38;29.73;;;21.83;;
52126;SDS011;38120;53.176;6.614;2024-01-10T03:09:03;29.50;;;21.80;;
52126;SDS011;38120;53.176;6.614;2024-01-10T03:11:29;27.20;;;20.93;;
52126;SDS011;38120;53.176;6.614;2024-01-10T03:14:02;29.08;;;21.70;;
52126;SDS011;38120;53.176;6.614;2024-01-10T03:16:32;27.98;;;20.38;;
52126;SDS011;38120;53.176;6.614;2024-01-10T03:18:58;29.90;;;22.00;;
52126;SDS011;38120;53.176;6.614;2024-01-10T03:21:23;26.40;;;20.33;;
52126;SDS011;38120;53.176;6.614;2024-01-10T03:23:52;27.60;;;20.92;;
52126;SDS011;38120;53.176;6.614;2024-01-10T03:26:25;25.88;;;21.05;;
52126;SDS011;38120;53.176;6.614;2024-01-10T03:28:52;28.67;;;21.85;;
52126;SDS011;38120;53.176;6.614;2024-01-10T03:31:18;27.13;;;21.45;;
52126;SDS011;38120;53.176;6.614;2024-01-10T03:33:44;26.58;;;20.58;;
52126;SDS011;38120;53.176;6.614;2024-01-10T03:36:14;28.83;;;21.20;;
52126;SDS011;38120;53.176;6.614;2024-01-10T03:38:41;27.00;;;20.08;;
52126;SDS011;38120;53.176;6.614;2024-01-10T03:41:07;31.15;;;20.45;;
52126;SDS011;38120;53.176;6.614;2024-01-10T03:43:32;29.00;;;20.47;;
52126;SDS011;38120;53.176;6.614;2024-01-10T03:45:58;25.70;;;18.90;;
52126;SDS011;38120;53.176;6.614;2024-01-10T03:48:24;24.33;;;19.47;;
52126;SDS011;38120;53.176;6.614;2024-01-10T03:50:49;24.57;;;19.47;;
52126;SDS011;38120;53.176;6.614;2024-01-10T03:53:15;30.17;;;21.73;;
52126;SDS011;38120;53.176;6.614;2024-01-10T03:55:41;25.93;;;20.70;;
52126;SDS011;38120;53.176;6.614;2024-01-10T03:58:07;26.37;;;21.13;;
52126;SDS011;38120;53.176;6.614;2024-01-10T04:00:33;28.30;;;20.45;;
52126;SDS011;38120;53.176;6.614;2024-01-10T04:02:58;27.43;;;20.97;;
52126;SDS011;38120;53.176;6.614;2024-01-10T04:05:24;28.85;;;20.75;;
52126;SDS011;38120;53.176;6.614;2024-01-10T04:07:50;30.83;;;22.35;;
52126;SDS011;38120;53.176;6.614;2024-01-10T04:10:17;27.40;;;21.35;;
52126;SDS011;38120;53.176;6.614;2024-01-10T04:12:43;28.98;;;21.02;;
52126;SDS011;38120;53.176;6.614;2024-01-10T04:15:10;31.70;;;22.58;;
52126;SDS011;38120;53.176;6.614;2024-01-10T04:17:36;30.48;;;20.92;;
52126;SDS011;38120;53.176;6.614;2024-01-10T04:20:03;28.27;;;21.48;;
52126;SDS011;38120;53.176;6.614;2024-01-10T04:22:29;27.13;;;21.83;;
52126;SDS011;38120;53.176;6.614;2024-01-10T04:24:58;30.23;;;21.03;;
52126;SDS011;38120;53.176;6.614;2024-01-10T04:27:25;32.60;;;22.05;;
52126;SDS011;38120;53.176;6.614;2024-01-10T04:29:52;26.17;;;20.95;;
52126;SDS011;38120;53.176;6.614;2024-01-10T04:34:44;28.27;;;20.58;;
52126;SDS011;38120;53.176;6.614;2024-01-10T04:37:10;29.90;;;20.90;;
52126;SDS011;38120;53.176;6.614;2024-01-10T04:39:36;27.33;;;20.88;;
52126;SDS011;38120;53.176;6.614;2024-01-10T04:42:05;29.60;;;22.42;;
52126;SDS011;38120;53.176;6.614;2024-01-10T04:44:31;27.35;;;21.70;;
52126;SDS011;38120;53.176;6.614;2024-01-10T04:46:57;28.80;;;22.58;;
52126;SDS011;38120;53.176;6.614;2024-01-10T04:49:23;30.57;;;23.77;;
52126;SDS011;38120;53.176;6.614;2024-01-10T04:51:49;29.57;;;22.03;;
52126;SDS011;38120;53.176;6.614;2024-01-10T04:54:15;28.63;;;21.73;;
52126;SDS011;38120;53.176;6.614;2024-01-10T04:56:41;30.90;;;24.03;;
52126;SDS011;38120;53.176;6.614;2024-01-10T04:59:07;28.67;;;21.57;;
52126;SDS011;38120;53.176;6.614;2024-01-10T05:01:32;25.77;;;20.93;;
52126;SDS011;38120;53.176;6.614;2024-01-10T05:03:58;26.90;;;21.73;;
52126;SDS011;38120;53.176;6.614;2024-01-10T05:06:24;30.03;;;20.77;;
52126;SDS011;38120;53.176;6.614;2024-01-10T05:08:50;25.88;;;20.95;;
52126;SDS011;38120;53.176;6.614;2024-01-10T05:11:16;29.83;;;21.10;;
52126;SDS011;38120;53.176;6.614;2024-01-10T05:13:42;24.85;;;21.80;;
52126;SDS011;38120;53.176;6.614;2024-01-10T05:16:08;28.30;;;20.05;;
52126;SDS011;38120;53.176;6.614;2024-01-10T05:18:34;28.90;;;22.15;;
52126;SDS011;38120;53.176;6.614;2024-01-10T05:21:00;29.90;;;21.53;;
52126;SDS011;38120;53.176;6.614;2024-01-10T05:23:26;25.60;;;19.67;;
52126;SDS011;38120;53.176;6.614;2024-01-10T05:25:52;30.75;;;20.85;;
52126;SDS011;38120;53.176;6.614;2024-01-10T05:30:44;29.60;;;20.23;;
52126;SDS011;38120;53.176;6.614;2024-01-10T05:33:10;24.23;;;20.27;;
52126;SDS011;38120;53.176;6.614;2024-01-10T05:35:36;27.93;;;21.53;;
52126;SDS011;38120;53.176;6.614;2024-01-10T05:38:03;27.35;;;20.70;;
52126;SDS011;38120;53.176;6.614;2024-01-10T05:40:35;31.45;;;21.17;;
52126;SDS011;38120;53.176;6.614;2024-01-10T05:43:20;27.75;;;20.95;;
52126;SDS011;38120;53.176;6.614;2024-01-10T05:45:46;29.67;;;23.17;;
52126;SDS011;38120;53.176;6.614;2024-01-10T05:48:12;31.63;;;22.83;;
52126;SDS011;38120;53.176;6.614;2024-01-10T05:50:38;30.10;;;21.47;;
52126;SDS011;38120;53.176;6.614;2024-01-10T05:53:04;29.42;;;22.88;;
52126;SDS011;38120;53.176;6.614;2024-01-10T05:55:30;29.20;;;22.53;;
52126;SDS011;38120;53.176;6.614;2024-01-10T05:57:58;28.67;;;21.48;;
52126;SDS011;38120;53.176;6.614;2024-01-10T06:00:23;26.97;;;21.67;;
52126;SDS011;38120;53.176;6.614;2024-01-10T06:02:49;31.37;;;22.37;;
52126;SDS011;38120;53.176;6.614;2024-01-10T06:05:15;28.37;;;20.73;;
52126;SDS011;38120;53.176;6.614;2024-01-10T06:07:41;29.77;;;23.47;;
52126;SDS011;38120;53.176;6.614;2024-01-10T06:10:07;26.23;;;21.88;;
52126;SDS011;38120;53.176;6.614;2024-01-10T06:12:33;30.55;;;23.73;;
52126;SDS011;38120;53.176;6.614;2024-01-10T06:15:04;29.55;;;23.60;;
52126;SDS011;38120;53.176;6.614;2024-01-10T06:17:31;31.10;;;23.67;;
52126;SDS011;38120;53.176;6.614;2024-01-10T06:20:03;31.50;;;23.17;;
52126;SDS011;38120;53.176;6.614;2024-01-10T06:22:29;30.30;;;23.67;;
52126;SDS011;38120;53.176;6.614;2024-01-10T06:24:55;30.17;;;22.30;;
52126;SDS011;38120;53.176;6.614;2024-01-10T06:27:21;29.23;;;22.50;;
52126;SDS011;38120;53.176;6.614;2024-01-10T06:29:46;29.37;;;23.03;;
52126;SDS011;38120;53.176;6.614;2024-01-10T06:32:12;28.85;;;23.38;;
52126;SDS011;38120;53.176;6.614;2024-01-10T06:34:39;30.05;;;23.75;;
52126;SDS011;38120;53.176;6.614;2024-01-10T06:37:05;31.05;;;23.42;;
52126;SDS011;38120;53.176;6.614;2024-01-10T06:39:41;36.83;;;26.13;;
52126;SDS011;38120;53.176;6.614;2024-01-10T06:42:06;34.72;;;24.50;;
52126;SDS011;38120;53.176;6.614;2024-01-10T06:44:35;32.42;;;25.45;;
52126;SDS011;38120;53.176;6.614;2024-01-10T06:47:03;32.58;;;24.33;;
52126;SDS011;38120;53.176;6.614;2024-01-10T06:49:29;32.93;;;24.30;;
52126;SDS011;38120;53.176;6.614;2024-01-10T06:51:55;30.48;;;23.65;;
52126;SDS011;38120;53.176;6.614;2024-01-10T06:54:20;32.97;;;23.67;;
52126;SDS011;38120;53.176;6.614;2024-01-10T06:56:53;32.92;;;24.27;;
52126;SDS011;38120;53.176;6.614;2024-01-10T06:59:19;34.47;;;24.57;;
52126;SDS011;38120;53.176;6.614;2024-01-10T07:01:45;29.63;;;23.30;;
52126;SDS011;38120;53.176;6.614;2024-01-10T07:04:16;33.00;;;23.38;;
52126;SDS011;38120;53.176;6.614;2024-01-10T07:09:08;33.85;;;24.10;;
52126;SDS011;38120;53.176;6.614;2024-01-10T07:11:34;32.67;;;22.73;;
52126;SDS011;38120;53.176;6.614;2024-01-10T07:14:00;34.00;;;22.47;;
52126;SDS011;38120;53.176;6.614;2024-01-10T07:16:26;30.77;;;23.33;;
52126;SDS011;38120;53.176;6.614;2024-01-10T07:18:51;34.00;;;24.40;;
52126;SDS011;38120;53.176;6.614;2024-01-10T07:21:17;33.60;;;23.30;;
52126;SDS011;38120;53.176;6.614;2024-01-10T07:23:44;35.92;;;23.15;;
52126;SDS011;38120;53.176;6.614;2024-01-10T07:26:18;34.33;;;24.27;;
52126;SDS011;38120;53.176;6.614;2024-01-10T07:28:44;33.93;;;22.83;;
52126;SDS011;38120;53.176;6.614;2024-01-10T07:31:11;33.20;;;22.20;;
52126;SDS011;38120;53.176;6.614;2024-01-10T07:33:36;31.17;;;23.05;;
52126;SDS011;38120;53.176;6.614;2024-01-10T07:36:02;37.47;;;24.83;;
52126;SDS011;38120;53.176;6.614;2024-01-10T07:38:28;37.38;;;24.05;;
52126;SDS011;38120;53.176;6.614;2024-01-10T07:40:54;41.23;;;25.67;;
52126;SDS011;38120;53.176;6.614;2024-01-10T07:43:20;30.97;;;21.13;;
52126;SDS011;38120;53.176;6.614;2024-01-10T07:45:46;33.73;;;23.17;;
52126;SDS011;38120;53.176;6.614;2024-01-10T07:48:11;33.30;;;22.03;;
52126;SDS011;38120;53.176;6.614;2024-01-10T07:50:37;29.43;;;21.57;;
52126;SDS011;38120;53.176;6.614;2024-01-10T07:53:03;35.47;;;21.87;;
52126;SDS011;38120;53.176;6.614;2024-01-10T07:55:29;35.03;;;22.08;;
52126;SDS011;38120;53.176;6.614;2024-01-10T07:57:54;30.87;;;21.23;;
52126;SDS011;38120;53.176;6.614;2024-01-10T08:00:20;32.10;;;21.35;;
52126;SDS011;38120;53.176;6.614;2024-01-10T08:02:47;30.75;;;21.05;;
52126;SDS011;38120;53.176;6.614;2024-01-10T08:05:14;35.67;;;21.17;;
52126;SDS011;38120;53.176;6.614;2024-01-10T08:07:41;31.98;;;21.25;;
52126;SDS011;38120;53.176;6.614;2024-01-10T08:10:08;30.03;;;19.70;;
52126;SDS011;38120;53.176;6.614;2024-01-10T08:12:38;34.85;;;22.23;;
52126;SDS011;38120;53.176;6.614;2024-01-10T08:15:04;31.92;;;19.92;;
52126;SDS011;38120;53.176;6.614;2024-01-10T08:17:31;32.15;;;20.50;;
52126;SDS011;38120;53.176;6.614;2024-01-10T08:22:25;32.47;;;20.07;;
52126;SDS011;38120;53.176;6.614;2024-01-10T08:24:50;34.80;;;21.63;;
52126;SDS011;38120;53.176;6.614;2024-01-10T08:27:16;36.83;;;20.67;;
52126;SDS011;38120;53.176;6.614;2024-01-10T08:29:42;36.23;;;21.57;;
52126;SDS011;38120;53.176;6.614;2024-01-10T08:32:08;31.23;;;20.67;;
52126;SDS011;38120;53.176;6.614;2024-01-10T08:34:33;36.13;;;20.07;;
52126;SDS011;38120;53.176;6.614;2024-01-10T08:36:59;34.80;;;20.57;;
52126;SDS011;38120;53.176;6.614;2024-01-10T08:39:24;33.37;;;20.83;;
52126;SDS011;38120;53.176;6.614;2024-01-10T08:41:53;30.92;;;19.83;;
52126;SDS011;38120;53.176;6.614;2024-01-10T08:44:19;33.53;;;20.40;;
52126;SDS011;38120;53.176;6.614;2024-01-10T08:46:44;30.13;;;19.03;;
52126;SDS011;38120;53.176;6.614;2024-01-10T08:49:10;31.55;;;18.88;;
52126;SDS011;38120;53.176;6.614;2024-01-10T08:51:36;31.95;;;18.95;;
52126;SDS011;38120;53.176;6.614;2024-01-10T08:54:02;30.90;;;18.70;;
52126;SDS011;38120;53.176;6.614;2024-01-10T08:56:28;29.85;;;18.77;;
52126;SDS011;38120;53.176;6.614;2024-01-10T08:58:54;30.27;;;17.45;;
52126;SDS011;38120;53.176;6.614;2024-01-10T09:01:20;28.63;;;16.65;;
52126;SDS011;38120;53.176;6.614;2024-01-10T09:03:47;31.75;;;18.23;;
52126;SDS011;38120;53.176;6.614;2024-01-10T09:06:13;28.65;;;18.02;;
52126;SDS011;38120;53.176;6.614;2024-01-10T09:08:39;29.00;;;16.35;;
52126;SDS011;38120;53.176;6.614;2024-01-10T09:11:05;26.98;;;17.40;;
52126;SDS011;38120;53.176;6.614;2024-01-10T09:13:31;28.40;;;17.30;;
52126;SDS011;38120;53.176;6.614;2024-01-10T09:15:57;26.25;;;16.00;;
52126;SDS011;38120;53.176;6.614;2024-01-10T09:18:22;28.07;;;15.60;;
52126;SDS011;38120;53.176;6.614;2024-01-10T09:20:48;28.65;;;16.60;;
52126;SDS011;38120;53.176;6.614;2024-01-10T09:23:14;28.45;;;16.70;;
52126;SDS011;38120;53.176;6.614;2024-01-10T09:25:40;27.92;;;17.38;;
52126;SDS011;38120;53.176;6.614;2024-01-10T09:28:06;27.67;;;16.77;;
52126;SDS011;38120;53.176;6.614;2024-01-10T09:30:32;26.17;;;16.00;;
52126;SDS011;38120;53.176;6.614;2024-01-10T09:32:59;29.42;;;16.00;;
52126;SDS011;38120;53.176;6.614;2024-01-10T09:35:25;26.52;;;15.10;;
52126;SDS011;38120;53.176;6.614;2024-01-10T09:37:51;27.65;;;16.65;;
52126;SDS011;38120;53.176;6.614;2024-01-10T09:40:18;23.67;;;15.38;;
52126;SDS011;38120;53.176;6.614;2024-01-10T09:42:47;33.42;;;17.83;;
52126;SDS011;38120;53.176;6.614;2024-01-10T09:45:16;25.77;;;16.02;;
52126;SDS011;38120;53.176;6.614;2024-01-10T09:47:45;28.88;;;17.63;;
52126;SDS011;38120;53.176;6.614;2024-01-10T09:50:14;26.15;;;15.50;;
52126;SDS011;38120;53.176;6.614;2024-01-10T09:55:19;26.50;;;15.93;;
52126;SDS011;38120;53.176;6.614;2024-01-10T09:57:47;28.63;;;17.08;;
52126;SDS011;38120;53.176;6.614;2024-01-10T10:00:13;27.77;;;15.97;;
52126;SDS011;38120;53.176;6.614;2024-01-10T10:02:41;24.15;;;16.23;;
52126;SDS011;38120;53.176;6.614;2024-01-10T10:05:08;25.88;;;15.13;;
52126;SDS011;38120;53.176;6.614;2024-01-10T10:07:47;25.65;;;15.35;;
52126;SDS011;38120;53.176;6.614;2024-01-10T10:10:14;24.65;;;15.13;;
52126;SDS011;38120;53.176;6.614;2024-01-10T10:12:42;27.77;;;15.88;;
52126;SDS011;38120;53.176;6.614;2024-01-10T10:15:15;24.05;;;14.45;;
52126;SDS011;38120;53.176;6.614;2024-01-10T10:17:44;24.42;;;14.98;;
52126;SDS011;38120;53.176;6.614;2024-01-10T10:23:06;24.55;;;14.85;;
52126;SDS011;38120;53.176;6.614;2024-01-10T10:25:35;27.95;;;15.98;;
52126;SDS011;38120;53.176;6.614;2024-01-10T10:28:03;24.40;;;14.90;;
52126;SDS011;38120;53.176;6.614;2024-01-10T10:32:56;23.75;;;15.73;;
52126;SDS011;38120;53.176;6.614;2024-01-10T10:35:22;24.07;;;14.50;;
52126;SDS011;38120;53.176;6.614;2024-01-10T10:37:49;25.30;;;14.57;;
52126;SDS011;38120;53.176;6.614;2024-01-10T10:40:15;26.88;;;15.98;;
52126;SDS011;38120;53.176;6.614;2024-01-10T10:42:49;26.50;;;15.40;;
52126;SDS011;38120;53.176;6.614;2024-01-10T10:45:20;22.77;;;14.32;;
52126;SDS011;38120;53.176;6.614;2024-01-10T10:47:58;22.77;;;14.30;;
52126;SDS011;38120;53.176;6.614;2024-01-10T10:50:29;22.92;;;14.68;;
52126;SDS011;38120;53.176;6.614;2024-01-10T10:53:02;20.85;;;13.45;;
52126;SDS011;38120;53.176;6.614;2024-01-10T10:55:28;24.35;;;15.02;;
52126;SDS011;38120;53.176;6.614;2024-01-10T10:57:55;22.95;;;13.65;;
52126;SDS011;38120;53.176;6.614;2024-01-10T11:02:52;21.60;;;13.63;;
52126;SDS011;38120;53.176;6.614;2024-01-10T11:05:19;19.58;;;12.70;;
52126;SDS011;38120;53.176;6.614;2024-01-10T11:07:45;23.23;;;14.15;;
52126;SDS011;38120;53.176;6.614;2024-01-10T11:10:18;20.55;;;13.05;;
52126;SDS011;38120;53.176;6.614;2024-01-10T11:15:28;20.42;;;13.15;;
52126;SDS011;38120;53.176;6.614;2024-01-10T11:18:05;23.77;;;13.48;;
52126;SDS011;38120;53.176;6.614;2024-01-10T11:20:56;23.10;;;14.10;;
52126;SDS011;38120;53.176;6.614;2024-01-10T11:23:43;20.35;;;12.60;;
52126;SDS011;38120;53.176;6.614;2024-01-10T11:26:13;26.35;;;14.82;;
52126;SDS011;38120;53.176;6.614;2024-01-10T11:28:40;19.73;;;13.02;;
52126;SDS011;38120;53.176;6.614;2024-01-10T11:31:06;22.27;;;13.32;;
52126;SDS011;38120;53.176;6.614;2024-01-10T11:33:47;19.27;;;12.68;;
52126;SDS011;38120;53.176;6.614;2024-01-10T11:36:18;18.48;;;12.70;;
52126;SDS011;38120;53.176;6.614;2024-01-10T11:41:27;23.63;;;14.75;;
52126;SDS011;38120;53.176;6.614;2024-01-10T11:46:41;22.38;;;14.77;;
52126;SDS011;38120;53.176;6.614;2024-01-10T11:49:09;20.02;;;14.52;;
52126;SDS011;38120;53.176;6.614;2024-01-10T11:51:36;22.27;;;14.60;;
52126;SDS011;38120;53.176;6.614;2024-01-10T11:54:03;23.70;;;14.93;;
52126;SDS011;38120;53.176;6.614;2024-01-10T11:56:38;20.52;;;13.38;;
52126;SDS011;38120;53.176;6.614;2024-01-10T11:59:08;22.55;;;13.38;;
52126;SDS011;38120;53.176;6.614;2024-01-10T12:01:38;21.08;;;13.70;;
52126;SDS011;38120;53.176;6.614;2024-01-10T12:04:06;21.23;;;12.98;;
52126;SDS011;38120;53.176;6.614;2024-01-10T12:06:40;20.52;;;14.13;;
52126;SDS011;38120;53.176;6.614;2024-01-10T12:09:06;21.30;;;14.10;;
52126;SDS011;38120;53.176;6.614;2024-01-10T12:11:35;22.75;;;14.05;;
52126;SDS011;38120;53.176;6.614;2024-01-10T12:14:04;21.38;;;15.10;;
52126;SDS011;38120;53.176;6.614;2024-01-10T12:16:30;22.83;;;13.27;;
52126;SDS011;38120;53.176;6.614;2024-01-10T12:18:57;21.60;;;15.18;;
52126;SDS011;38120;53.176;6.614;2024-01-10T12:21:23;21.43;;;13.53;;
52126;SDS011;38120;53.176;6.614;2024-01-10T12:23:49;19.98;;;12.90;;
52126;SDS011;38120;53.176;6.614;2024-01-10T12:26:16;23.67;;;13.70;;
52126;SDS011;38120;53.176;6.614;2024-01-10T12:28:53;19.55;;;14.13;;
52126;SDS011;38120;53.176;6.614;2024-01-10T12:31:23;19.60;;;14.65;;
52126;SDS011;38120;53.176;6.614;2024-01-10T12:33:52;23.05;;;14.88;;
52126;SDS011;38120;53.176;6.614;2024-01-10T12:36:20;20.92;;;13.98;;
52126;SDS011;38120;53.176;6.614;2024-01-10T12:38:46;19.50;;;13.27;;
52126;SDS011;38120;53.176;6.614;2024-01-10T12:41:14;21.23;;;15.00;;
52126;SDS011;38120;53.176;6.614;2024-01-10T12:43:40;22.25;;;14.80;;
52126;SDS011;38120;53.176;6.614;2024-01-10T12:46:10;16.55;;;12.98;;
52126;SDS011;38120;53.176;6.614;2024-01-10T12:48:40;20.00;;;13.80;;
52126;SDS011;38120;53.176;6.614;2024-01-10T12:51:07;21.25;;;13.95;;
52126;SDS011;38120;53.176;6.614;2024-01-10T12:53:43;20.95;;;15.15;;
52126;SDS011;38120;53.176;6.614;2024-01-10T12:56:10;22.15;;;15.13;;
52126;SDS011;38120;53.176;6.614;2024-01-10T12:58:39;20.10;;;13.45;;
52126;SDS011;38120;53.176;6.614;2024-01-10T13:01:10;21.13;;;15.18;;
52126;SDS011;38120;53.176;6.614;2024-01-10T13:03:37;21.80;;;14.02;;
52126;SDS011;38120;53.176;6.614;2024-01-10T13:06:03;19.13;;;14.40;;
52126;SDS011;38120;53.176;6.614;2024-01-10T13:08:30;22.25;;;14.15;;
52126;SDS011;38120;53.176;6.614;2024-01-10T13:10:57;20.95;;;13.77;;
52126;SDS011;38120;53.176;6.614;2024-01-10T13:13:23;21.85;;;14.38;;
52126;SDS011;38120;53.176;6.614;2024-01-10T13:15:48;23.63;;;13.60;;
52126;SDS011;38120;53.176;6.614;2024-01-10T13:18:15;18.58;;;13.60;;
52126;SDS011;38120;53.176;6.614;2024-01-10T13:20:41;19.10;;;13.25;;
52126;SDS011;38120;53.176;6.614;2024-01-10T13:23:08;18.77;;;13.90;;
52126;SDS011;38120;53.176;6.614;2024-01-10T13:25:35;24.20;;;13.43;;
52126;SDS011;38120;53.176;6.614;2024-01-10T13:28:07;20.75;;;13.65;;
52126;SDS011;38120;53.176;6.614;2024-01-10T13:30:33;16.88;;;10.93;;
52126;SDS011;38120;53.176;6.614;2024-01-10T13:32:59;18.53;;;12.53;;
52126;SDS011;38120;53.176;6.614;2024-01-10T13:35:25;24.27;;;14.57;;
52126;SDS011;38120;53.176;6.614;2024-01-10T13:37:51;19.75;;;13.70;;
52126;SDS011;38120;53.176;6.614;2024-01-10T13:40:17;19.75;;;13.50;;
52126;SDS011;38120;53.176;6.614;2024-01-10T13:42:48;19.20;;;12.77;;
52126;SDS011;38120;53.176;6.614;2024-01-10T13:45:15;20.10;;;12.93;;
52126;SDS011;38120;53.176;6.614;2024-01-10T13:47:42;18.63;;;12.95;;
52126;SDS011;38120;53.176;6.614;2024-01-10T13:50:08;17.92;;;13.40;;
52126;SDS011;38120;53.176;6.614;2024-01-10T13:52:37;19.35;;;14.00;;
52126;SDS011;38120;53.176;6.614;2024-01-10T13:55:10;17.85;;;12.55;;
52126;SDS011;38120;53.176;6.614;2024-01-10T13:57:36;17.90;;;13.10;;
52126;SDS011;38120;53.176;6.614;2024-01-10T14:00:02;20.83;;;13.30;;
52126;SDS011;38120;53.176;6.614;2024-01-10T14:02:28;18.42;;;12.02;;
52126;SDS011;38120;53.176;6.614;2024-01-10T14:04:54;20.90;;;13.45;;
52126;SDS011;38120;53.176;6.614;2024-01-10T14:07:22;17.20;;;12.43;;
52126;SDS011;38120;53.176;6.614;2024-01-10T14:09:49;20.17;;;14.02;;
52126;SDS011;38120;53.176;6.614;2024-01-10T14:12:15;18.38;;;12.68;;
52126;SDS011;38120;53.176;6.614;2024-01-10T14:14:44;17.83;;;12.60;;
52126;SDS011;38120;53.176;6.614;2024-01-10T14:17:10;20.27;;;13.80;;
52126;SDS011;38120;53.176;6.614;2024-01-10T14:19:35;20.13;;;12.70;;
52126;SDS011;38120;53.176;6.614;2024-01-10T14:22:01;19.93;;;14.53;;
52126;SDS011;38120;53.176;6.614;2024-01-10T14:24:27;20.77;;;13.73;;
52126;SDS011;38120;53.176;6.614;2024-01-10T14:26:52;18.37;;;13.40;;
52126;SDS011;38120;53.176;6.614;2024-01-10T14:29:19;19.88;;;12.50;;
52126;SDS011;38120;53.176;6.614;2024-01-10T14:31:47;19.10;;;14.00;;
52126;SDS011;38120;53.176;6.614;2024-01-10T14:34:14;19.25;;;13.45;;
52126;SDS011;38120;53.176;6.614;2024-01-10T14:36:40;19.55;;;13.40;;
52126;SDS011;38120;53.176;6.614;2024-01-10T14:39:06;23.13;;;12.87;;
52126;SDS011;38120;53.176;6.614;2024-01-10T14:41:38;18.42;;;12.27;;
52126;SDS011;38120;53.176;6.614;2024-01-10T14:44:04;20.48;;;12.95;;
52126;SDS011;38120;53.176;6.614;2024-01-10T14:46:30;21.23;;;13.97;;
52126;SDS011;38120;53.176;6.614;2024-01-10T14:48:56;19.33;;;13.80;;
52126;SDS011;38120;53.176;6.614;2024-01-10T14:51:22;19.87;;;13.80;;